Time;durP1;ratioP1;P1;durP2;ratioP2;P2;SDS_P1;SDS_P2;PMS_P1;PMS_P2;Temp;Humidity;BMP_temperature;BMP_pressure;BME280_temperature;BME280_humidity;BME280_pressure;Samples;Min_cycle;Max_cycle;Signal;HPM_P1;HPM_P2
2022/05/10 00:00:08;;;;;;;5.57;2.60;;;18.10;67.00;;;;;;10371211;28;20420;-63
2022/05/10 00:05:10;;;;;;;6.03;2.67;;;18.10;67.00;;;;;;10370625;28;20090;-63
2022/05/10 00:10:11;;;;;;;6.15;2.78;;;18.10;67.00;;;;;;10371206;28;20026;-61
2022/05/10 00:15:12;;;;;;;4.35;2.70;;;18.00;67.10;;;;;;10370579;28;20038;-62
2022/05/10 00:20:18;;;;;;;5.18;2.33;;;18.00;67.20;;;;;;10371007;28;20029;-61
2022/05/10 00:25:25;;;;;;;8.50;2.45;;;17.90;67.30;;;;;;10370487;28;20125;-63
2022/05/10 00:30:27;;;;;;;5.80;3.00;;;17.90;67.40;;;;;;10370709;28;20026;-58
2022/05/10 00:35:29;;;;;;;5.55;2.50;;;17.90;67.40;;;;;;10370309;28;20030;-59
2022/05/10 00:40:34;;;;;;;3.22;2.60;;;17.90;67.50;;;;;;10369873;28;20030;-58
2022/05/10 00:45:54;;;;;;;6.38;3.05;;;17.80;67.60;;;;;;10369711;28;20124;-59
2022/05/10 00:51:11;;;;;;;4.25;2.63;;;17.80;67.70;;;;;;10369647;28;20018;-61
2022/05/10 00:56:20;;;;;;;5.33;2.90;;;17.70;67.80;;;;;;10369283;28;20029;-62
2022/05/10 01:01:28;;;;;;;6.13;3.00;;;17.70;67.70;;;;;;10369391;28;20725;-58
2022/05/10 01:06:38;;;;;;;4.72;2.97;;;17.70;67.80;;;;;;10368728;28;20483;-62
2022/05/10 01:11:56;;;;;;;5.50;2.80;;;17.60;67.90;;;;;;10368901;28;20041;-58
2022/05/10 01:16:57;;;;;;;8.63;3.50;;;17.60;68.00;;;;;;10369020;28;20116;-59
2022/05/10 01:22:20;;;;;;;7.85;3.28;;;17.60;68.00;;;;;;10368648;28;20109;-58
2022/05/10 01:28:03;;;;;;;6.47;3.75;;;17.50;68.00;;;;;;10368405;28;20041;-58
2022/05/10 01:33:29;;;;;;;5.88;2.85;;;17.50;68.20;;;;;;10368323;28;20026;-58
2022/05/10 01:38:42;;;;;;;5.22;2.92;;;17.50;68.20;;;;;;10368629;28;20021;-62
2022/05/10 01:44:05;;;;;;;8.20;3.40;;;17.40;68.20;;;;;;10368033;28;20038;-63
2022/05/10 01:49:45;;;;;;;4.85;2.92;;;17.40;68.40;;;;;;10367756;28;20022;-59
2022/05/10 01:54:46;;;;;;;8.15;3.35;;;17.40;68.60;;;;;;10367720;28;20489;-62
2022/05/10 01:59:53;;;;;;;5.90;3.33;;;17.40;68.50;;;;;;10367530;28;20030;-59
2022/05/10 02:05:01;;;;;;;7.40;3.28;;;17.30;68.60;;;;;;10366015;28;20103;-57
2022/05/10 02:10:06;;;;;;;;;;;17.30;69.30;;;;;;10367635;28;20052;-60
2022/05/10 02:15:27;;;;;;;5.15;3.33;;;17.20;68.90;;;;;;10367461;28;20437;-63
2022/05/10 02:20:37;;;;;;;5.80;3.90;;;17.20;68.60;;;;;;10366459;28;20030;-62
2022/05/10 02:25:43;;;;;;;6.25;3.40;;;17.20;68.80;;;;;;10366752;28;20041;-62
2022/05/10 02:30:45;;;;;;;7.38;3.58;;;17.10;68.80;;;;;;10366413;28;20026;-63
2022/05/10 02:35:51;;;;;;;4.60;3.05;;;17.10;68.80;;;;;;10366533;28;20022;-58
2022/05/10 02:40:55;;;;;;;5.57;3.50;;;17.10;68.90;;;;;;10366218;28;20543;-60
2022/05/10 02:45:56;;;;;;;8.52;3.78;;;17.10;69.00;;;;;;10365974;28;20080;-61
2022/05/10 02:50:58;;;;;;;3.58;3.00;;;17.00;69.00;;;;;;10366066;28;20120;-61
2022/05/10 02:56:02;;;;;;;7.55;3.47;;;17.00;69.00;;;;;;10365640;28;20026;-63
2022/05/10 03:01:19;;;;;;;5.55;3.17;;;17.00;69.10;;;;;;10365601;28;20022;-58
2022/05/10 03:06:23;;;;;;;8.30;3.63;;;17.00;69.30;;;;;;10365215;28;20049;-62
2022/05/10 03:11:24;;;;;;;7.80;3.40;;;17.00;69.20;;;;;;10365477;28;20026;-61
2022/05/10 03:16:26;;;;;;;6.38;3.60;;;17.00;69.30;;;;;;10364830;28;20122;-62
2022/05/10 03:21:27;;;;;;;5.60;3.45;;;16.90;69.30;;;;;;10365091;28;20041;-61
2022/05/10 03:26:27;;;;;;;8.13;3.53;;;16.90;69.40;;;;;;10364768;28;20041;-60
2022/05/10 03:31:29;;;;;;;7.35;3.70;;;16.90;69.40;;;;;;10364858;28;20029;-63
2022/05/10 03:36:30;;;;;;;4.75;3.22;;;16.90;69.50;;;;;;10364652;28;20385;-61
2022/05/10 03:41:30;;;;;;;5.03;3.35;;;16.90;69.60;;;;;;10364536;28;20026;-62
2022/05/10 03:46:31;;;;;;;6.43;3.97;;;16.90;69.60;;;;;;10364555;28;20048;-62
2022/05/10 03:51:32;;;;;;;5.78;3.70;;;16.80;69.60;;;;;;10364332;28;20479;-62
2022/05/10 03:56:36;;;;;;;7.05;3.60;;;16.90;69.80;;;;;;10364411;28;20041;-62
2022/05/10 04:01:37;;;;;;;5.28;3.95;;;16.80;69.80;;;;;;10363989;28;20046;-62
2022/05/10 04:06:39;;;;;;;7.45;3.90;;;16.80;69.80;;;;;;10363688;28;20045;-63
2022/05/10 04:11:39;;;;;;;5.20;3.38;;;16.80;69.90;;;;;;10363984;28;20362;-58
2022/05/10 04:16:40;;;;;;;7.05;3.80;;;16.80;69.90;;;;;;10363824;28;20026;-57
2022/05/10 04:21:41;;;;;;;7.40;4.25;;;16.80;70.00;;;;;;10364031;28;20470;-57
2022/05/10 04:26:42;;;;;;;5.03;3.58;;;16.80;70.00;;;;;;10346806;28;20119;-57
2022/05/10 04:31:43;;;;;;;7.07;3.65;;;16.80;70.10;;;;;;10370096;28;20125;-57
2022/05/10 04:36:44;;;;;;;5.93;3.58;;;16.80;70.10;;;;;;10370324;28;20121;-59
2022/05/10 04:41:49;;;;;;;6.55;3.67;;;16.80;70.10;;;;;;10370076;28;20468;-58
2022/05/10 04:46:50;;;;;;;6.72;3.55;;;16.70;70.10;;;;;;10369961;28;20037;-63
2022/05/10 04:51:50;;;;;;;7.18;3.65;;;16.70;70.70;;;;;;10369553;28;20581;-61
2022/05/10 04:56:51;;;;;;;8.32;3.50;;;16.70;70.10;;;;;;10369395;28;20473;-60
2022/05/10 05:01:52;;;;;;;5.75;3.80;;;16.70;70.20;;;;;;10369567;28;20071;-69
2022/05/10 05:06:52;;;;;;;5.18;3.63;;;16.80;70.30;;;;;;10368927;28;20058;-67
2022/05/10 05:11:53;;;;;;;6.50;3.35;;;16.80;70.30;;;;;;10369169;28;20045;-59
2022/05/10 05:16:54;;;;;;;6.40;3.47;;;16.80;70.30;;;;;;10368704;28;20030;-73
2022/05/10 05:21:55;;;;;;;6.18;3.40;;;16.80;70.30;;;;;;10368769;28;20041;-74
2022/05/10 05:26:57;;;;;;;6.75;3.97;;;16.80;70.40;;;;;;10368387;28;20041;-62
2022/05/10 05:32:03;;;;;;;9.80;4.95;;;16.80;70.40;;;;;;10368395;28;20033;-66
2022/05/10 05:42:24;;;;;;;10.13;4.20;;;16.80;71.00;;;;;;10368124;28;20119;-65
2022/05/10 05:47:26;;;;;;;7.60;3.97;;;16.80;71.00;;;;;;10367217;28;20121;-69
2022/05/10 05:52:27;;;;;;;9.95;4.55;;;16.90;71.10;;;;;;10366728;28;20052;-61
2022/05/10 05:57:28;;;;;;;13.88;4.20;;;16.90;71.30;;;;;;10366558;28;20034;-70
2022/05/10 06:02:28;;;;;;;5.60;3.45;;;16.90;71.30;;;;;;10366511;28;20038;-65
2022/05/10 06:07:29;;;;;;;5.72;3.42;;;16.90;71.20;;;;;;10366337;28;20580;-70
2022/05/10 06:12:30;;;;;;;7.75;3.85;;;16.90;71.00;;;;;;10366073;28;20059;-64
2022/05/10 06:17:31;;;;;;;6.70;3.55;;;16.90;71.50;;;;;;10366135;28;20089;-71
2022/05/10 06:22:31;;;;;;;8.60;3.70;;;17.00;70.90;;;;;;10365785;28;20019;-69
2022/05/10 06:27:32;;;;;;;6.95;3.85;;;17.00;70.80;;;;;;10365945;28;20041;-67
2022/05/10 06:32:33;;;;;;;6.10;3.53;;;17.00;70.90;;;;;;10366533;28;20112;-70
2022/05/10 06:42:57;;;;;;;7.40;4.63;;;17.00;70.90;;;;;;10366150;28;20022;-65
2022/05/10 06:47:57;;;;;;;6.85;4.00;;;17.10;70.90;;;;;;10366213;28;20029;-69
2022/05/10 06:52:59;;;;;;;6.32;4.18;;;17.10;70.90;;;;;;10365263;28;20030;-65
2022/05/10 06:58:03;;;;;;;6.78;3.97;;;17.20;70.90;;;;;;10365178;28;20507;-61
2022/05/10 07:03:06;;;;;;;5.50;3.53;;;17.20;70.70;;;;;;10365142;28;20034;-61
2022/05/10 07:08:07;;;;;;;6.82;4.10;;;17.30;70.70;;;;;;10365034;28;20050;-63
2022/05/10 07:13:08;;;;;;;6.45;4.03;;;17.30;70.60;;;;;;10365287;28;20129;-63
2022/05/10 07:18:08;;;;;;;7.22;3.80;;;17.40;70.60;;;;;;10364756;28;20030;-63
2022/05/10 07:23:10;;;;;;;6.68;4.10;;;17.40;70.50;;;;;;10364771;28;20048;-61
2022/05/10 07:28:11;;;;;;;6.70;3.97;;;17.50;70.70;;;;;;10362908;28;20490;-63
2022/05/10 07:33:12;;;;;;;7.50;3.80;;;17.60;70.70;;;;;;10362832;28;20034;-63
2022/05/10 07:38:14;;;;;;;7.82;4.00;;;17.70;70.60;;;;;;10362422;28;20026;-61
2022/05/10 07:43:17;;;;;;;7.93;4.05;;;17.70;70.60;;;;;;10362527;28;20053;-59
2022/05/10 07:48:18;;;;;;;7.07;3.72;;;17.70;70.50;;;;;;10362377;28;20061;-61
2022/05/10 07:53:19;;;;;;;7.40;4.20;;;17.80;70.50;;;;;;10362144;28;20050;-61
2022/05/10 07:58:19;;;;;;;6.97;4.25;;;17.90;70.50;;;;;;10361583;28;20062;-62
2022/05/10 08:03:22;;;;;;;10.00;4.70;;;18.00;70.50;;;;;;10364702;28;20044;-61
2022/05/10 08:08:24;;;;;;;7.43;4.13;;;18.00;70.60;;;;;;10368729;28;20138;-61
2022/05/10 08:13:29;;;;;;;8.30;3.92;;;18.00;70.70;;;;;;10368764;28;20026;-64
2022/05/10 08:18:30;;;;;;;8.35;4.13;;;18.00;70.90;;;;;;10368653;28;20026;-62
2022/05/10 08:23:33;;;;;;;8.40;4.50;;;18.00;70.90;;;;;;10368446;28;20046;-63
2022/05/10 08:28:35;;;;;;;6.97;3.88;;;18.00;71.00;;;;;;10368867;28;20057;-63
2022/05/10 08:33:39;;;;;;;6.78;4.13;;;18.00;71.00;;;;;;10368428;28;20026;-62
2022/05/10 08:38:40;;;;;;;9.15;3.97;;;18.10;71.20;;;;;;10368283;28;20030;-63
2022/05/10 08:43:48;;;;;;;8.25;4.22;;;18.10;71.20;;;;;;10367946;28;20059;-63
2022/05/10 08:49:08;;;;;;;6.53;4.30;;;18.10;71.20;;;;;;10368241;28;20474;-64
2022/05/10 08:54:09;;;;;;;6.22;3.80;;;18.20;71.40;;;;;;10367874;28;20083;-64
2022/05/10 08:59:32;;;;;;;19.75;5.90;;;18.20;71.30;;;;;;10367725;28;20022;-64
2022/05/10 09:04:54;;;;;;;6.28;4.15;;;18.20;71.60;;;;;;10367019;28;20127;-63
2022/05/10 09:10:30;;;;;;;8.73;4.10;;;18.20;71.50;;;;;;10367270;28;20038;-64
2022/05/10 09:15:40;;;;;;;8.23;4.43;;;18.30;71.40;;;;;;10316631;28;20046;-64
2022/05/10 09:20:52;;;;;;;9.90;4.57;;;18.30;71.50;;;;;;10367222;28;20075;-64
2022/05/10 09:25:56;;;;;;;7.53;4.93;;;18.40;71.50;;;;;;10367019;28;20045;-64
2022/05/10 09:36:50;;;;;;;10.10;5.20;;;18.60;72.00;;;;;;10366500;28;20470;-62
2022/05/10 09:41:54;;;;;;;11.35;4.97;;;18.70;71.50;;;;;;10366060;28;20040;-63
2022/05/10 09:47:12;;;;;;;8.18;4.95;;;18.80;71.70;;;;;;10365929;28;20042;-64
2022/05/10 09:52:21;;;;;;;8.55;4.85;;;18.80;72.00;;;;;;10366161;28;20426;-62
2022/05/10 09:57:35;;;;;;;12.13;5.75;;;18.90;71.80;;;;;;10366009;28;20044;-64
2022/05/10 10:02:38;;;;;;;10.82;5.32;;;18.90;72.00;;;;;;10365495;28;20091;-63
2022/05/10 10:07:49;;;;;;;8.32;4.78;;;18.90;72.40;;;;;;10365254;28;20111;-63
2022/05/10 10:12:50;;;;;;;10.18;5.05;;;19.00;72.10;;;;;;10365362;28;20439;-62
2022/05/10 10:17:58;;;;;;;7.70;4.78;;;19.00;72.00;;;;;;10365190;28;20036;-61
2022/05/10 10:23:04;;;;;;;10.65;5.18;;;19.00;72.10;;;;;;10364939;28;20061;-62
2022/05/10 10:28:24;;;;;;;12.48;5.90;;;19.10;72.10;;;;;;10363690;28;20054;-64
2022/05/10 10:33:45;;;;;;;8.25;5.43;;;19.20;72.60;;;;;;10364742;28;20064;-63
2022/05/10 10:39:09;;;;;;;7.15;4.88;;;19.20;72.70;;;;;;10364400;28;20090;-62
2022/05/10 10:44:28;;;;;;;6.07;4.93;;;19.30;72.60;;;;;;10364306;28;20037;-64
2022/05/10 10:49:42;;;;;;;;;;;19.30;73.40;;;;;;10364466;28;20061;-64
2022/05/10 10:54:44;;;;;;;8.48;4.68;;;19.30;73.10;;;;;;10364024;28;20385;-63
2022/05/10 10:59:56;;;;;;;7.22;4.20;;;19.40;72.30;;;;;;10363821;28;20025;-64
2022/05/10 11:05:18;;;;;;;6.63;4.20;;;19.40;72.50;;;;;;10363534;28;20068;-64
2022/05/10 11:10:23;;;;;;;7.45;4.43;;;19.50;72.40;;;;;;10363639;28;20091;-64
2022/05/10 11:15:53;;;;;;;8.23;4.38;;;19.50;72.30;;;;;;10363172;28;20057;-64
2022/05/10 11:21:24;;;;;;;10.93;4.28;;;19.50;72.40;;;;;;10363176;28;20406;-63
2022/05/10 11:26:46;;;;;;;6.70;4.30;;;19.60;72.30;;;;;;10363035;28;20034;-63
2022/05/10 11:32:13;;;;;;;5.38;3.83;;;19.70;72.20;;;;;;10363188;28;20075;-63
2022/05/10 11:37:20;;;;;;;10.70;4.68;;;19.70;72.20;;;;;;10346635;28;20034;-64
2022/05/10 11:42:21;;;;;;;6.97;4.33;;;19.80;72.00;;;;;;10370072;28;20596;-64
2022/05/10 11:47:36;;;;;;;7.53;4.50;;;19.80;72.00;;;;;;10369829;28;20296;-62
2022/05/10 11:52:48;;;;;;;8.02;4.15;;;19.90;72.00;;;;;;10369756;28;20030;-62
2022/05/10 11:57:58;;;;;;;10.70;4.95;;;20.00;72.00;;;;;;10369679;28;20122;-63
2022/05/10 12:03:09;;;;;;;8.65;4.07;;;20.00;71.80;;;;;;10369304;28;20033;-63
2022/05/10 12:08:34;;;;;;;7.68;4.07;;;20.10;71.80;;;;;;10369269;28;20054;-64
2022/05/10 12:24:44;;;;;;;7.85;4.13;;;20.20;71.70;;;;;;10350919;28;20049;-68
2022/05/10 12:29:52;;;;;;;10.98;4.15;;;20.20;71.70;;;;;;10370339;28;20026;-74
2022/05/10 12:34:54;;;;;;;5.53;3.80;;;20.80;71.10;;;;;;10369897;28;20382;-73
2022/05/10 12:40:09;;;;;;;5.63;3.83;;;21.30;70.00;;;;;;10369760;28;20034;-73
2022/05/10 12:45:35;;;;;;;12.73;4.72;;;21.80;69.30;;;;;;10369680;28;20049;-76
2022/05/10 12:51:02;;;;;;;10.68;4.35;;;22.10;68.80;;;;;;10369223;28;20034;-74
2022/05/10 12:56:27;;;;;;;5.47;3.87;;;22.20;68.60;;;;;;10352096;28;20034;-66
2022/05/10 13:01:34;;;;;;;9.23;4.40;;;22.20;68.10;;;;;;10369322;28;20064;-71
2022/05/10 13:07:00;;;;;;;5.88;3.97;;;22.10;67.80;;;;;;10368902;28;20140;-75
2022/05/10 13:12:03;;;;;;;7.70;3.67;;;22.00;67.70;;;;;;10369527;28;20078;-74
2022/05/10 13:17:05;;;;;;;6.78;3.63;;;21.90;68.50;;;;;;10368840;28;20026;-67
2022/05/10 13:22:12;;;;;;;8.02;4.75;;;21.80;68.70;;;;;;10368975;28;20026;-75
2022/05/10 13:27:32;;;;;;;8.27;3.35;;;21.90;68.60;;;;;;10368493;28;20038;-74
2022/05/10 13:32:42;;;;;;;9.43;3.75;;;21.90;68.10;;;;;;10368438;28;20129;-74
2022/05/10 13:37:50;;;;;;;8.98;3.40;;;22.10;68.40;;;;;;10368257;28;20024;-65
2022/05/10 13:42:51;;;;;;;3.10;2.58;;;22.30;67.80;;;;;;10368127;28;20058;-76
2022/05/10 13:47:59;;;;;;;4.38;2.70;;;22.40;67.20;;;;;;10367879;28;20494;-73
2022/05/10 13:53:10;;;;;;;7.10;2.95;;;22.30;66.30;;;;;;10367543;28;20105;-74
2022/05/10 13:58:14;;;;;;;5.57;2.42;;;22.20;66.00;;;;;;10367431;28;20029;-73
2022/05/10 14:03:20;;;;;;;5.30;2.35;;;22.10;66.50;;;;;;10366815;28;20367;-73
2022/05/10 14:08:26;;;;;;;4.32;2.35;;;22.00;66.10;;;;;;10366843;28;20061;-73
2022/05/10 14:13:27;;;;;;;7.07;2.03;;;22.00;66.00;;;;;;10366579;28;20094;-74
2022/05/10 14:18:40;;;;;;;4.90;2.40;;;21.70;65.90;;;;;;10366531;28;20029;-65
2022/05/10 14:23:41;;;;;;;3.88;2.00;;;21.70;64.70;;;;;;10366435;28;20450;-68
2022/05/10 14:28:53;;;;;;;5.93;2.20;;;21.60;64.90;;;;;;10366593;28;20037;-79
2022/05/10 14:33:54;;;;;;;2.70;0.88;;;21.40;63.90;;;;;;10366330;28;20038;-65
2022/05/10 14:38:56;;;;;;;2.15;0.95;;;21.10;64.00;;;;;;10366147;28;20029;-73
2022/05/10 14:43:57;;;;;;;3.45;0.80;;;20.90;63.70;;;;;;10365894;28;20409;-72
2022/05/10 14:49:05;;;;;;;2.92;0.95;;;20.60;63.90;;;;;;10348388;28;20040;-69
2022/05/10 14:54:08;;;;;;;5.63;1.10;;;20.50;64.00;;;;;;10365892;28;20419;-73
2022/05/10 14:59:14;;;;;;;6.65;0.95;;;20.40;64.20;;;;;;10365550;28;20565;-69
2022/05/10 15:04:18;;;;;;;5.53;0.73;;;20.20;64.10;;;;;;10365155;28;20041;-72
2022/05/10 15:09:19;;;;;;;1.75;0.93;;;20.10;64.40;;;;;;10365278;28;20036;-68
2022/05/10 15:14:21;;;;;;;9.63;1.17;;;20.00;64.60;;;;;;10364367;28;20385;-73
2022/05/10 15:19:22;;;;;;;2.25;0.93;;;19.80;64.70;;;;;;10365238;28;20050;-72
2022/05/10 15:24:22;;;;;;;1.38;0.88;;;19.80;64.90;;;;;;10364691;28;20462;-70
2022/05/10 15:29:32;;;;;;;7.13;1.30;;;19.60;64.60;;;;;;10364765;28;20034;-74
2022/05/10 15:34:43;;;;;;;2.28;0.93;;;19.50;63.80;;;;;;10369683;28;20038;-74
2022/05/10 15:39:45;;;;;;;1.48;1.00;;;19.40;64.20;;;;;;10347123;28;20075;-81
2022/05/10 15:44:45;;;;;;;2.30;1.10;;;19.30;64.10;;;;;;10364273;28;20069;-83
2022/05/10 15:49:47;;;;;;;2.50;1.00;;;19.20;64.00;;;;;;10364391;28;20054;-78
2022/05/10 15:54:47;;;;;;;3.38;0.93;;;19.10;64.20;;;;;;10364169;28;20034;-68
2022/05/10 15:59:49;;;;;;;3.25;1.00;;;19.00;64.50;;;;;;10364259;28;20027;-66
2022/05/10 16:04:53;;;;;;;4.43;1.10;;;19.00;64.80;;;;;;10364095;28;20139;-74
2022/05/10 16:09:54;;;;;;;5.68;1.10;;;18.90;65.00;;;;;;10364147;28;20082;-76
2022/05/10 16:14:58;;;;;;;2.83;1.10;;;18.80;65.30;;;;;;10346366;28;20113;-70
2022/05/10 16:20:00;;;;;;;3.25;1.40;;;18.80;65.50;;;;;;10363532;28;20045;-78
2022/05/10 16:25:01;;;;;;;3.13;1.35;;;18.90;65.80;;;;;;10367402;28;20549;-76
2022/05/10 16:30:02;;;;;;;3.85;1.10;;;18.80;65.80;;;;;;10370117;28;20171;-75
2022/05/10 16:35:03;;;;;;;6.55;1.55;;;18.70;66.00;;;;;;10369994;28;20126;-67
2022/05/10 16:40:04;;;;;;;8.95;1.40;;;18.70;66.20;;;;;;10369221;28;20034;-61
2022/05/10 16:45:06;;;;;;;4.15;1.48;;;18.70;66.20;;;;;;10369220;28;20034;-61
2022/05/10 16:50:10;;;;;;;4.70;1.33;;;18.90;66.30;;;;;;10369420;28;20038;-61
2022/05/10 16:55:13;;;;;;;1.83;1.10;;;19.00;66.20;;;;;;10369487;28;20021;-61
2022/05/10 17:00:15;;;;;;;4.65;1.17;;;19.00;66.20;;;;;;10369214;28;20109;-63
2022/05/10 17:05:18;;;;;;;3.63;1.10;;;19.10;66.30;;;;;;10368909;28;20375;-63
2022/05/10 17:10:27;;;;;;;2.22;1.05;;;19.10;66.30;;;;;;10368964;28;20105;-62
2022/05/10 17:15:28;;;;;;;1.85;1.08;;;19.10;66.40;;;;;;10369746;28;20029;-62
2022/05/10 17:20:29;;;;;;;3.70;1.00;;;19.20;66.50;;;;;;10369178;28;20054;-61
2022/05/10 17:25:31;;;;;;;2.13;1.10;;;19.20;66.60;;;;;;10368704;28;20046;-62
2022/05/10 17:30:32;;;;;;;2.63;1.02;;;19.20;66.70;;;;;;10368333;28;20486;-62
2022/05/10 17:35:33;;;;;;;4.28;1.67;;;19.20;66.80;;;;;;10367617;28;20113;-65
2022/05/10 17:40:35;;;;;;;4.88;1.30;;;19.20;67.10;;;;;;10367969;28;20030;-67
2022/05/10 17:45:37;;;;;;;1.85;1.05;;;19.10;67.20;;;;;;10367530;28;20505;-70
2022/05/10 17:50:37;;;;;;;3.40;1.48;;;19.20;67.20;;;;;;10349751;28;20402;-70
2022/05/10 17:55:38;;;;;;;3.95;1.40;;;19.10;67.10;;;;;;10367445;28;20041;-62
2022/05/10 18:00:39;;;;;;;3.80;1.30;;;19.10;67.30;;;;;;10367219;28;20033;-64
2022/05/10 18:05:40;;;;;;;2.83;1.30;;;19.10;68.10;;;;;;10366764;28;20046;-63
2022/05/10 18:10:41;;;;;;;3.35;1.17;;;19.00;67.40;;;;;;10366929;28;20079;-63
2022/05/10 18:15:42;;;;;;;7.30;1.23;;;19.00;67.50;;;;;;10366712;28;20550;-64
2022/05/10 18:20:44;;;;;;;1.98;1.40;;;19.10;67.50;;;;;;10366688;28;20030;-61
2022/05/10 18:25:45;;;;;;;3.78;1.42;;;19.10;67.50;;;;;;10366399;28;20074;-63
2022/05/10 18:30:48;;;;;;;3.63;1.27;;;19.00;67.50;;;;;;10366491;28;20068;-63
2022/05/10 18:35:50;;;;;;;4.15;1.48;;;19.00;67.60;;;;;;10366698;28;20535;-63
2022/05/10 18:40:51;;;;;;;1.90;1.20;;;19.00;67.70;;;;;;10366321;28;20089;-63
2022/05/10 18:45:52;;;;;;;1.40;1.10;;;19.00;67.80;;;;;;10364987;28;20038;-62
2022/05/10 18:50:53;;;;;;;1.80;1.17;;;18.90;67.80;;;;;;10366330;28;20453;-64
2022/05/10 18:55:54;;;;;;;2.42;1.00;;;18.90;68.00;;;;;;10365880;28;20390;-63
2022/05/10 19:00:55;;;;;;;4.15;1.20;;;18.90;68.00;;;;;;10365497;28;20034;-58
2022/05/10 19:05:56;;;;;;;2.50;0.90;;;18.90;68.10;;;;;;10364613;28;20046;-60
2022/05/10 19:11:06;;;;;;;2.53;1.10;;;18.80;68.10;;;;;;10365001;28;20494;-63
2022/05/10 19:16:07;;;;;;;2.63;1.13;;;18.80;68.40;;;;;;10365059;28;20026;-59
2022/05/10 19:21:09;;;;;;;2.63;1.20;;;18.80;68.40;;;;;;10364989;28;20030;-62
2022/05/10 19:26:15;;;;;;;2.92;1.10;;;18.80;68.50;;;;;;10364650;28;20109;-59
2022/05/10 19:31:16;;;;;;;2.78;1.25;;;18.70;68.60;;;;;;10364690;28;20038;-64
2022/05/10 19:36:17;;;;;;;2.35;1.10;;;18.70;68.70;;;;;;10364351;28;20083;-64
2022/05/10 19:41:17;;;;;;;1.83;1.08;;;18.70;68.90;;;;;;10364559;28;20514;-66
2022/05/10 19:46:19;;;;;;;2.00;1.20;;;18.60;69.30;;;;;;10364095;28;20130;-59
2022/05/10 19:51:20;;;;;;;2.63;1.23;;;18.60;69.60;;;;;;10364337;28;20042;-63
2022/05/10 19:56:22;;;;;;;2.58;1.48;;;18.50;69.70;;;;;;10364140;28;20075;-62
2022/05/10 20:06:42;;;;;;;2.25;1.23;;;18.50;70.00;;;;;;10371066;28;20058;-63
2022/05/10 20:11:45;;;;;;;2.88;1.27;;;18.50;70.20;;;;;;10370634;28;20030;-61
2022/05/10 20:16:46;;;;;;;5.25;1.20;;;18.50;70.20;;;;;;10370635;28;20037;-63
2022/05/10 20:21:47;;;;;;;3.20;1.35;;;18.50;70.40;;;;;;10370360;28;20026;-63
2022/05/10 20:26:48;;;;;;;2.85;1.35;;;18.40;70.40;;;;;;10370099;28;20469;-60
2022/05/10 20:31:49;;;;;;;2.85;1.30;;;18.40;70.60;;;;;;10370087;28;20026;-62
2022/05/10 20:36:49;;;;;;;1.98;1.40;;;18.40;70.70;;;;;;10369817;28;20067;-62
2022/05/10 20:41:50;;;;;;;3.17;1.45;;;18.40;70.80;;;;;;10369926;28;20053;-62
2022/05/10 20:46:51;;;;;;;2.58;1.23;;;18.30;70.90;;;;;;10352054;28;20045;-60
2022/05/10 20:51:52;;;;;;;3.10;1.50;;;18.30;71.00;;;;;;10369389;28;20112;-63
2022/05/10 20:56:53;;;;;;;4.68;1.60;;;18.30;71.20;;;;;;10369415;28;20358;-63
2022/05/10 21:01:53;;;;;;;3.50;1.55;;;18.30;71.30;;;;;;10369135;28;20023;-61
2022/05/10 21:12:15;;;;;;;3.88;1.48;;;18.20;71.50;;;;;;10368204;28;20039;-66
2022/05/10 21:17:16;;;;;;;3.00;1.48;;;18.20;71.50;;;;;;10368717;28;20045;-60
2022/05/10 21:22:16;;;;;;;2.83;1.50;;;18.20;71.60;;;;;;10368613;28;20355;-68
2022/05/10 21:27:17;;;;;;;2.03;1.50;;;18.20;71.70;;;;;;10368418;28;20125;-59
2022/05/10 21:32:18;;;;;;;4.90;1.83;;;18.20;71.90;;;;;;10368255;28;20365;-63
2022/05/10 21:37:19;;;;;;;4.60;2.22;;;18.10;71.90;;;;;;10368258;28;20470;-61
2022/05/10 21:42:20;;;;;;;2.45;1.77;;;18.10;72.00;;;;;;10368090;28;20567;-59
2022/05/10 21:47:21;;;;;;;4.03;2.15;;;18.10;72.10;;;;;;10368017;28;20384;-62
2022/05/10 21:52:22;;;;;;;2.42;1.60;;;18.10;72.20;;;;;;10367826;28;20030;-59
2022/05/10 21:57:23;;;;;;;3.45;1.85;;;18.00;72.30;;;;;;10367381;28;20060;-62
2022/05/10 22:02:24;;;;;;;3.42;1.70;;;18.00;72.40;;;;;;10367305;28;20482;-63
2022/05/10 22:07:25;;;;;;;2.60;2.05;;;18.00;72.60;;;;;;10367053;28;20069;-63
2022/05/10 22:12:25;;;;;;;3.80;1.85;;;18.00;72.70;;;;;;10367003;28;20022;-62
2022/05/10 22:17:26;;;;;;;3.03;1.98;;;17.90;72.70;;;;;;10366373;28;20033;-63
2022/05/10 22:22:27;;;;;;;4.28;2.10;;;17.90;72.90;;;;;;10365485;28;20037;-62
2022/05/10 22:27:28;;;;;;;3.88;2.10;;;17.90;72.90;;;;;;10366493;28;20042;-62
2022/05/10 22:32:29;;;;;;;2.95;2.00;;;17.90;73.10;;;;;;10366422;28;20030;-61
2022/05/10 22:37:33;;;;;;;3.67;2.00;;;17.90;73.20;;;;;;10366226;28;20051;-63
2022/05/10 22:42:34;;;;;;;3.88;2.05;;;17.90;73.40;;;;;;10366442;28;20028;-58
2022/05/10 22:47:36;;;;;;;5.00;1.88;;;17.80;73.70;;;;;;10365791;28;20034;-63
2022/05/10 22:52:37;;;;;;;3.08;2.00;;;17.80;73.50;;;;;;10365986;28;20049;-62
2022/05/10 22:57:38;;;;;;;3.28;1.75;;;17.80;73.60;;;;;;10365620;28;20049;-62
2022/05/10 23:02:40;;;;;;;3.15;1.85;;;17.80;74.30;;;;;;10365658;28;20069;-59
2022/05/10 23:07:41;;;;;;;3.55;1.90;;;17.80;73.80;;;;;;10365081;28;20094;-61
2022/05/10 23:12:42;;;;;;;4.57;2.22;;;17.70;73.80;;;;;;10365205;28;20143;-62
2022/05/10 23:17:43;;;;;;;5.65;2.30;;;17.70;73.90;;;;;;10365357;28;20497;-60
2022/05/10 23:22:44;;;;;;;2.47;1.88;;;17.70;73.90;;;;;;10365029;28;20045;-59
2022/05/10 23:27:46;;;;;;;2.60;2.00;;;17.70;74.00;;;;;;10365069;28;20034;-63
2022/05/10 23:32:48;;;;;;;3.92;2.20;;;17.70;74.10;;;;;;10366968;28;20121;-63
2022/05/10 23:37:49;;;;;;;2.55;1.90;;;17.70;74.20;;;;;;10372002;28;20075;-60
2022/05/10 23:48:09;;;;;;;3.95;1.63;;;17.60;74.30;;;;;;10371674;28;20065;-60
2022/05/10 23:53:14;;;;;;;3.33;2.10;;;17.60;74.30;;;;;;10372084;28;20484;-63
2022/05/10 23:58:20;;;;;;;2.80;2.08;;;17.60;74.40;;;;;;10371423;28;20198;-62
